Latest Coastal Weather Observations for St Lawrence

IDQ60701

Issued at 7:01 am EST Monday 2 March 2015 (issued every 10 minutes, with the page automatically refreshed every 10 minutes)

About coastal observations | Map of coastal stations | Coastal observations for QLD | Marine services | Other Formats
Station Details ID: 033210 Name: ST LAWRENCE Lat: -22.35 Lon: 149.52 Height: 9.19 m
Data from the previous 72 hours. | See also: Recent months at St Lawrence
Date/Time
EST
Temp

°C
Wind Pressure Rain
since 9am
mm
Weather Cloud Vis
km
Sea
Height
m
Swell
Dir
 
Speed
knots
Gust
knots
hPa Trend Height
m
Period
s
Dir
02/07:00am 25.1 CALM 0 0 1009.7 - 0.0 - - - - - - -
02/06:30am 24.4 CALM 0 0 1009.5 - 0.0 - - - - - - -
02/06:00am 24.4 S 3 4 1009.1 - 0.0 - - - - - - -
02/05:30am 24.2 S 1 3 1008.5 - 0.0 - - - - - - -
02/05:00am 24.5 S 3 4 1008.1 - 0.0 - - - - - - -
02/04:30am 24.7 S 1 4 1007.9 - 0.0 - - - - - - -
02/04:00am 24.6 CALM 0 0 1007.8 - 0.0 - - - - - - -
02/03:30am 24.7 CALM 0 0 1007.5 - 0.0 - - - - - - -
02/03:00am 24.9 CALM 0 0 1007.6 - 0.0 - - - - - - -
02/02:30am 25.0 W 3 5 1007.7 - 0.0 - - - - - - -
02/02:00am 25.5 WNW 3 4 1008.2 - 0.0 - - - - - - -
02/01:30am 26.7 NNE 5 6 1008.8 - 0.0 - - - - - - -
02/01:00am 26.7 NNE 4 6 1008.9 - 0.0 - - - - - - -
02/12:30am 26.9 NNE 6 8 1008.9 - 0.0 - - - - - - -
02/12:00am 27.0 NNE 7 9 1009.1 - 0.0 - - - - - - -
 
Date/Time
EST
Temp

°C
Wind Pressure Rain
since 9am
mm
Weather Cloud Vis
km
Sea
Height
m
Swell
Dir
 
Speed
knots
Gust
knots
hPa Trend Height
m
Period
s
Dir
01/11:30pm 27.1 NNE 7 10 1009.5 - 0.0 - - - - - - -
01/11:00pm 27.2 NNE 8 11 1009.7 - 0.0 - - - - - - -
01/10:30pm 27.2 NNE 7 11 1009.7 - 0.0 - - - - - - -
01/10:00pm 27.4 NE 8 12 1009.8 - 0.0 - - - - - - -
01/09:30pm 27.3 NE 8 12 1009.3 - 0.0 - - - - - - -
01/09:00pm 27.5 NNE 9 13 1009.0 - 0.0 - - - - - - -
01/08:30pm 27.5 NE 9 13 1008.8 - 0.0 - - - - - - -
01/08:00pm 27.5 NE 9 13 1008.4 - 0.0 - - - - - - -
01/07:30pm 27.4 NE 9 13 1008.1 - 0.0 - - - - - - -
01/07:00pm 27.6 NNE 10 14 1007.6 - 0.0 - - - - - - -
01/06:30pm 27.9 NNE 10 13 1007.3 - 0.0 - - - - - - -
01/06:00pm 28.5 NE 10 15 1006.9 - 0.0 - - - - - - -
01/05:30pm 30.0 NE 8 10 1006.5 - 0.0 - - - - - - -
01/05:00pm 30.6 NE 9 11 1006.4 - 0.0 - - - - - - -
01/04:30pm 30.9 NE 8 10 1006.5 - 0.0 - - - - - - -
01/04:00pm 31.9 NE 8 11 1006.3 - 0.0 - - - - - - -
01/03:30pm 31.6 NE 7 11 1006.4 - 0.0 - - - - - - -
01/03:00pm 31.4 NNE 8 11 1006.7 - 0.0 - - - - - - -
01/02:30pm 31.6 NE 8 10 1006.8 - 0.0 - - - - - - -
01/02:00pm 31.7 NE 7 11 1007.2 - 0.0 - - - - - - -
01/01:30pm 31.2 NNE 9 12 1007.6 - 0.0 - - - - - - -
01/01:00pm 31.7 NNE 7 13 1007.9 - 0.0 - - - - - - -
01/12:30pm 30.8 NNE 6 10 1008.5 - 0.0 - - - - - - -
01/12:00pm 30.8 NE 6 9 1009.0 - 0.0 - - - - - - -
01/11:30am 30.5 NNE 9 11 1009.4 - 0.0 - - - - - - -
01/11:00am 30.2 NNE 5 9 1009.7 - 0.0 - - - - - - -
01/10:30am 29.9 NE 6 9 1009.9 - 0.0 - - - - - - -
01/10:00am 29.7 NNE 6 9 1010.2 - 0.0 - - - - - - -
01/09:30am 29.3 NNE 6 9 1010.0 - 0.0 - - - - - - -
01/09:00am 27.6 N 3 6 1010.0 - 0.0 - - - - - - -
01/08:30am 27.0 WNW 5 7 1009.9 - 0.0 - - - - - - -
01/08:00am 26.8 SSE 3 5 1009.6 - 0.0 - - - - - - -
01/07:30am 26.1 SSE 5 6 1009.3 - 0.0 - - - - - - -
01/07:00am 25.3 SSE 4 6 1009.0 - 0.0 - - - - - - -
01/06:30am 24.3 S 4 4 1008.5 - 0.0 - - - - - - -
01/06:00am 23.7 WSW 2 4 1008.3 - 0.0 - - - - - - -
01/05:30am 24.3 CALM 0 0 1007.9 - 0.0 - - - - - - -
01/05:00am 24.7 E 2 4 1007.6 - 0.0 - - - - - - -
01/04:30am 24.7 E 2 3 1007.4 - 0.0 - - - - - - -
01/04:00am 25.3 ENE 3 4 1007.4 - 0.0 - - - - - - -
01/03:30am 25.8 NE 5 6 1007.4 - 0.0 - - - - - - -
01/03:00am 26.1 NE 5 8 1007.5 - 0.0 - - - - - - -
01/02:30am 26.1 NE 5 8 1007.6 - 0.0 - - - - - - -
01/02:00am 26.5 ENE 5 8 1008.0 - 0.0 - - - - - - -
01/01:30am 26.6 ENE 4 6 1008.6 - 0.0 - - - - - - -
01/01:00am 27.0 NE 5 8 1008.8 - 0.0 - - - - - - -
01/12:30am 27.1 NNE 5 8 1009.0 - 0.0 - - - - - - -
01/12:00am 26.9 NE 7 9 1009.2 - 0.0 - - - - - - -
 
Date/Time
EST
Temp

°C
Wind Pressure Rain
since 9am
mm
Weather Cloud Vis
km
Sea
Height
m
Swell
Dir
 
Speed
knots
Gust
knots
hPa Trend Height
m
Period
s
Dir
28/11:30pm 27.1 NE 6 8 1009.3 - 0.0 - - - - - - -
28/11:00pm 27.0 NE 6 10 1009.4 - 0.0 - - - - - - -
28/10:30pm 27.0 NE 7 10 1009.5 - 0.0 - - - - - - -
28/10:00pm 27.2 NE 8 13 1009.5 - 0.0 - - - - - - -
28/09:30pm 27.2 NE 8 12 1009.6 - 0.0 - - - - - - -
28/09:00pm 27.3 NE 8 11 1009.3 - 0.0 - - - - - - -
28/08:30pm 27.5 NE 8 12 1009.1 - 0.0 - - - - - - -
28/08:00pm 27.5 NE 9 14 1008.4 - 0.0 - - - - - - -
28/07:30pm 27.6 NNE 10 14 1008.3 - 0.0 - - - - - - -
28/07:00pm 27.5 NE 10 15 1007.8 - 0.0 - - - - - - -
28/06:30pm 27.8 NNE 11 15 1007.5 - 0.0 - - - - - - -
28/06:00pm 28.0 NNE 13 17 1007.2 - 0.0 - - - - - - -
28/05:30pm 28.7 NNE 14 19 1006.8 - 0.0 - - - - - - -
28/05:00pm 29.4 NNE 12 17 1006.6 - 0.0 - - - - - - -
28/04:30pm 30.2 NNE 11 15 1006.5 - 0.0 - - - - - - -
28/04:00pm 30.7 NNE 10 14 1006.2 - 0.0 - - - - - - -
28/03:30pm 31.2 NNE 10 13 1006.0 - 0.0 - - - - - - -
28/03:00pm 31.2 NE 9 12 1006.2 - 0.0 - - - - - - -
28/02:30pm 31.2 ENE 8 15 1006.2 - 0.0 - - - - - - -
28/02:00pm 31.2 NE 7 11 1006.6 - 0.0 - - - - - - -
28/01:30pm 31.5 NNE 9 12 1007.0 - 0.0 - - - - - - -
28/01:00pm 31.6 NNE 9 12 1007.4 - 0.0 - - - - - - -
28/12:30pm 31.0 NE 7 12 1007.9 - 0.0 - - - - - - -
28/12:00pm 31.2 NE 6 10 1008.4 - 0.0 - - - - - - -
28/11:30am 30.5 NNE 7 10 1008.8 - 0.0 - - - - - - -
28/11:00am 30.2 N 5 9 1009.2 - 0.0 - - - - - - -
28/10:30am 29.4 NNE 6 8 1009.4 - 0.0 - - - - - - -
28/10:00am 29.3 NNE 5 7 1009.6 - 0.0 - - - - - - -
28/09:30am 28.8 NE 3 5 1009.6 - 0.0 - - - - - - -
28/09:00am 29.0 NE 4 6 1009.5 - 0.0 - - - - - - -
28/08:30am 27.6 SSW 2 5 1009.3 - 0.0 - - - - - - -
28/08:00am 26.8 S 4 5 1009.0 - 0.0 - - - - - - -
28/07:30am 25.0 WSW 2 3 1008.8 - 0.0 - - - - - - -
28/07:00am 23.7 SW 3 4 1008.5 - 0.0 - - - - - - -
28/06:30am 23.2 SSW 1 4 1008.2 - 0.0 - - - - - - -
28/06:00am 23.2 SW 1 3 1007.6 - 0.0 - - - - - - -
28/05:30am 23.4 SW 3 4 1007.5 - 0.0 - - - - - - -
28/05:00am 24.0 WSW 1 4 1007.4 - 0.0 - - - - - - -
28/04:30am 24.3 CALM 0 0 1007.6 - 0.0 - - - - - - -
28/04:00am 24.7 CALM 0 3 1007.7 - 0.0 - - - - - - -
28/03:30am 25.1 NW 3 5 1007.4 - 0.0 - - - - - - -
28/03:00am 25.6 NE 3 4 1007.3 - 0.0 - - - - - - -
28/02:30am 26.2 NNE 7 10 1007.2 - 0.0 - - - - - - -
28/02:00am 26.1 NNE 6 7 1007.2 - 0.0 - - - - - - -
28/01:30am 26.1 NNE 4 6 1007.8 - 0.0 - - - - - - -
28/01:00am 26.4 NNE 6 8 1007.9 - 0.0 - - - - - - -
28/12:30am 26.3 NE 6 9 1008.0 - 0.0 - - - - - - -
28/12:00am 26.6 NNE 7 9 1008.2 - 0.0 - - - - - - -
 
Date/Time
EST
Temp

°C
Wind Pressure Rain
since 9am
mm
Weather Cloud Vis
km
Sea
Height
m
Swell
Dir
 
Speed
knots
Gust
knots
hPa Trend Height
m
Period
s
Dir
27/11:30pm 26.8 NNE 7 10 1008.2 - 0.0 - - - - - - -
27/11:00pm 26.6 NE 7 9 1008.4 - 0.0 - - - - - - -
27/10:30pm 26.8 NNE 7 10 1008.3 - 0.0 - - - - - - -
27/10:00pm 26.9 NNE 8 10 1008.2 - 0.0 - - - - - - -
27/09:30pm 27.0 NNE 8 11 1007.9 - 0.0 - - - - - - -
27/09:00pm 26.7 NE 8 11 1007.3 - 0.0 - - - - - - -
27/08:30pm 27.0 NE 8 12 1007.0 - 0.0 - - - - - - -
27/08:00pm 26.9 NE 8 11 1006.9 - 0.0 - - - - - - -
27/07:30pm 27.3 NNE 8 11 1006.9 - 0.0 - - - - - - -
27/07:00pm 27.3 NNE 10 15 1006.3 - 0.0 - - - - - - -
27/06:30pm 27.4 NE 10 14 1005.8 - 0.0 - - - - - - -
27/06:00pm 27.7 NNE 10 13 1005.7 - 0.0 - - - - - - -
27/05:30pm 28.2 NNE 11 15 1005.6 - 0.0 - - - - - - -
27/05:00pm 28.6 NNE 12 17 1005.0 - 0.0 - - - - - - -
27/04:30pm 29.5 NNE 11 15 1004.7 - 0.0 - - - - - - -
27/04:00pm 30.5 NNE 10 14 1005.0 - 0.0 - - - - - - -
27/03:30pm 30.4 NNE 10 15 1005.1 - 0.0 - - - - - - -
27/03:00pm 31.5 NE 9 13 1005.2 - 0.0 - - - - - - -
27/02:30pm 31.6 NE 9 12 1005.5 - 0.0 - - - - - - -
27/02:00pm 31.8 NNE 8 12 1005.8 - 0.0 - - - - - - -
27/01:30pm 31.5 NE 8 12 1006.0 - 0.0 - - - - - - -
27/01:00pm 31.5 NE 5 8 1006.5 - 0.0 - - - - - - -
27/12:30pm 30.9 NNE 6 10 1006.8 - 0.0 - - - - - - -
27/12:00pm 30.7 NE 7 13 1007.1 - 0.0 - - - - - - -
27/11:30am 31.0 NNE 6 9 1007.5 - 0.0 - - - - - - -
27/11:00am 30.2 NNE 4 7 1008.1 - 0.0 - - - - - - -
27/10:30am 29.9 N 5 7 1008.4 - 0.0 - - - - - - -
27/10:00am 29.7 NE 3 5 1008.5 - 0.0 - - - - - - -
27/09:30am 28.7 NNE 3 5 1008.7 - 0.0 - - - - - - -
27/09:00am 28.5 NNW 4 6 1008.6 - - - - - - - - -
27/08:30am 27.6 CALM 0 3 1008.3 - - - - - - - - -
27/08:00am 26.8 SSW 2 4 1008.0 - - - - - - - - -
27/07:30am 25.6 WSW 4 5 1007.8 - - - - - - - - -

Other Formats:

Comma delimited format used in spreadsheet applications
http://www.bom.gov.au/fwo/IDQ60701/IDQ60701.95369.axf

JavaScript Object Notation format (JSON) in row-major order
http://www.bom.gov.au/fwo/IDQ60701/IDQ60701.95369.json